sensor_id;sensor_type;location;lat;lon;timestamp;P1;durP1;ratioP1;P2;durP2;ratioP2
34657;SDS011;20865;43.312;27.152;2022-12-29T00:00:32;6.05;;;3.42;;
34657;SDS011;20865;43.312;27.152;2022-12-29T00:03:00;11.12;;;3.75;;
34657;SDS011;20865;43.312;27.152;2022-12-29T00:05:27;8.53;;;4.20;;
34657;SDS011;20865;43.312;27.152;2022-12-29T00:07:55;8.98;;;3.75;;
34657;SDS011;20865;43.312;27.152;2022-12-29T00:10:22;12.90;;;4.20;;
34657;SDS011;20865;43.312;27.152;2022-12-29T00:12:50;25.08;;;6.78;;
34657;SDS011;20865;43.312;27.152;2022-12-29T00:15:35;14.20;;;4.72;;
34657;SDS011;20865;43.312;27.152;2022-12-29T00:18:03;8.75;;;4.12;;
34657;SDS011;20865;43.312;27.152;2022-12-29T00:20:33;12.60;;;4.90;;
34657;SDS011;20865;43.312;27.152;2022-12-29T00:23:20;11.00;;;4.40;;
34657;SDS011;20865;43.312;27.152;2022-12-29T00:26:11;12.88;;;4.28;;
34657;SDS011;20865;43.312;27.152;2022-12-29T00:28:57;21.33;;;5.40;;
34657;SDS011;20865;43.312;27.152;2022-12-29T00:31:43;12.28;;;4.50;;
34657;SDS011;20865;43.312;27.152;2022-12-29T00:34:28;5.85;;;3.05;;
34657;SDS011;20865;43.312;27.152;2022-12-29T00:37:14;12.37;;;4.22;;
34657;SDS011;20865;43.312;27.152;2022-12-29T00:39:42;8.65;;;3.75;;
34657;SDS011;20865;43.312;27.152;2022-12-29T00:42:29;14.50;;;5.20;;
34657;SDS011;20865;43.312;27.152;2022-12-29T00:45:14;10.18;;;4.53;;
34657;SDS011;20865;43.312;27.152;2022-12-29T00:47:42;10.53;;;5.37;;
34657;SDS011;20865;43.312;27.152;2022-12-29T00:50:10;11.78;;;4.22;;
34657;SDS011;20865;43.312;27.152;2022-12-29T00:52:37;7.78;;;4.10;;
34657;SDS011;20865;43.312;27.152;2022-12-29T00:55:05;9.68;;;4.28;;
34657;SDS011;20865;43.312;27.152;2022-12-29T00:57:33;15.05;;;4.65;;
34657;SDS011;20865;43.312;27.152;2022-12-29T01:00:00;13.48;;;4.62;;
34657;SDS011;20865;43.312;27.152;2022-12-29T01:02:28;12.30;;;4.28;;
34657;SDS011;20865;43.312;27.152;2022-12-29T01:04:56;10.60;;;4.05;;
34657;SDS011;20865;43.312;27.152;2022-12-29T01:07:23;9.48;;;3.90;;
34657;SDS011;20865;43.312;27.152;2022-12-29T01:09:51;9.00;;;3.98;;
34657;SDS011;20865;43.312;27.152;2022-12-29T01:12:37;11.12;;;3.40;;
34657;SDS011;20865;43.312;27.152;2022-12-29T01:15:10;10.13;;;3.95;;
34657;SDS011;20865;43.312;27.152;2022-12-29T01:17:40;9.98;;;3.52;;
34657;SDS011;20865;43.312;27.152;2022-12-29T01:20:08;13.28;;;4.95;;
34657;SDS011;20865;43.312;27.152;2022-12-29T01:22:37;9.38;;;4.05;;
34657;SDS011;20865;43.312;27.152;2022-12-29T01:25:06;8.58;;;3.62;;
34657;SDS011;20865;43.312;27.152;2022-12-29T01:27:33;13.03;;;4.30;;
34657;SDS011;20865;43.312;27.152;2022-12-29T01:30:01;13.68;;;3.87;;
34657;SDS011;20865;43.312;27.152;2022-12-29T01:32:29;10.10;;;3.75;;
34657;SDS011;20865;43.312;27.152;2022-12-29T01:34:56;10.28;;;4.40;;
34657;SDS011;20865;43.312;27.152;2022-12-29T01:37:24;18.65;;;4.85;;
34657;SDS011;20865;43.312;27.152;2022-12-29T01:39:52;13.10;;;4.25;;
34657;SDS011;20865;43.312;27.152;2022-12-29T01:42:19;10.95;;;4.22;;
34657;SDS011;20865;43.312;27.152;2022-12-29T01:47:43;9.23;;;3.80;;
34657;SDS011;20865;43.312;27.152;2022-12-29T01:50:37;8.85;;;3.20;;
34657;SDS011;20865;43.312;27.152;2022-12-29T01:53:08;13.83;;;4.35;;
34657;SDS011;20865;43.312;27.152;2022-12-29T01:55:38;7.30;;;3.42;;
34657;SDS011;20865;43.312;27.152;2022-12-29T01:58:07;11.33;;;4.60;;
34657;SDS011;20865;43.312;27.152;2022-12-29T02:00:38;12.20;;;4.40;;
34657;SDS011;20865;43.312;27.152;2022-12-29T02:03:05;8.48;;;4.10;;
34657;SDS011;20865;43.312;27.152;2022-12-29T02:05:49;9.28;;;4.17;;
34657;SDS011;20865;43.312;27.152;2022-12-29T02:08:20;11.90;;;3.60;;
34657;SDS011;20865;43.312;27.152;2022-12-29T02:10:51;7.78;;;2.65;;
34657;SDS011;20865;43.312;27.152;2022-12-29T02:13:19;8.53;;;3.42;;
34657;SDS011;20865;43.312;27.152;2022-12-29T02:24:49;10.10;;;4.37;;
34657;SDS011;20865;43.312;27.152;2022-12-29T02:33:12;9.98;;;4.20;;
34657;SDS011;20865;43.312;27.152;2022-12-29T02:38:39;7.83;;;3.47;;
34657;SDS011;20865;43.312;27.152;2022-12-29T02:41:19;7.78;;;2.92;;
34657;SDS011;20865;43.312;27.152;2022-12-29T02:46:53;11.30;;;3.35;;
34657;SDS011;20865;43.312;27.152;2022-12-29T02:49:33;10.23;;;3.52;;
34657;SDS011;20865;43.312;27.152;2022-12-29T02:52:11;9.08;;;3.60;;
34657;SDS011;20865;43.312;27.152;2022-12-29T02:54:39;11.37;;;3.93;;
34657;SDS011;20865;43.312;27.152;2022-12-29T02:57:15;8.53;;;3.72;;
34657;SDS011;20865;43.312;27.152;2022-12-29T03:00:04;10.25;;;3.70;;
34657;SDS011;20865;43.312;27.152;2022-12-29T03:02:39;8.18;;;3.55;;
34657;SDS011;20865;43.312;27.152;2022-12-29T03:10:52;10.05;;;4.33;;
34657;SDS011;20865;43.312;27.152;2022-12-29T03:13:26;11.60;;;3.77;;
34657;SDS011;20865;43.312;27.152;2022-12-29T03:19:34;8.85;;;3.58;;
34657;SDS011;20865;43.312;27.152;2022-12-29T03:21:36;12.40;;;4.07;;
34657;SDS011;20865;43.312;27.152;2022-12-29T03:24:25;9.83;;;4.35;;
34657;SDS011;20865;43.312;27.152;2022-12-29T03:26:56;13.68;;;4.53;;
34657;SDS011;20865;43.312;27.152;2022-12-29T03:29:27;9.73;;;3.98;;
34657;SDS011;20865;43.312;27.152;2022-12-29T03:31:57;13.20;;;4.58;;
34657;SDS011;20865;43.312;27.152;2022-12-29T03:34:26;5.53;;;3.55;;
34657;SDS011;20865;43.312;27.152;2022-12-29T03:37:00;11.15;;;3.98;;
34657;SDS011;20865;43.312;27.152;2022-12-29T03:39:29;14.03;;;5.05;;
34657;SDS011;20865;43.312;27.152;2022-12-29T03:41:58;13.53;;;3.80;;
34657;SDS011;20865;43.312;27.152;2022-12-29T03:44:47;15.10;;;6.15;;
34657;SDS011;20865;43.312;27.152;2022-12-29T03:47:06;8.48;;;4.22;;
34657;SDS011;20865;43.312;27.152;2022-12-29T03:49:36;8.20;;;3.60;;
34657;SDS011;20865;43.312;27.152;2022-12-29T03:52:04;7.67;;;3.77;;
34657;SDS011;20865;43.312;27.152;2022-12-29T03:54:32;8.33;;;3.20;;
34657;SDS011;20865;43.312;27.152;2022-12-29T03:56:59;7.15;;;3.25;;
34657;SDS011;20865;43.312;27.152;2022-12-29T03:59:27;12.05;;;4.30;;
34657;SDS011;20865;43.312;27.152;2022-12-29T04:01:54;9.35;;;4.37;;
34657;SDS011;20865;43.312;27.152;2022-12-29T04:04:22;10.30;;;4.25;;
34657;SDS011;20865;43.312;27.152;2022-12-29T04:06:49;13.48;;;4.85;;
34657;SDS011;20865;43.312;27.152;2022-12-29T04:09:17;6.60;;;3.15;;
34657;SDS011;20865;43.312;27.152;2022-12-29T04:11:45;12.53;;;4.15;;
34657;SDS011;20865;43.312;27.152;2022-12-29T04:14:12;9.45;;;3.60;;
34657;SDS011;20865;43.312;27.152;2022-12-29T04:16:40;12.23;;;3.87;;
34657;SDS011;20865;43.312;27.152;2022-12-29T04:19:08;11.38;;;3.83;;
34657;SDS011;20865;43.312;27.152;2022-12-29T04:21:35;10.40;;;5.00;;
34657;SDS011;20865;43.312;27.152;2022-12-29T04:24:03;20.75;;;6.75;;
34657;SDS011;20865;43.312;27.152;2022-12-29T04:26:32;12.15;;;3.77;;
34657;SDS011;20865;43.312;27.152;2022-12-29T04:29:00;9.68;;;3.90;;
34657;SDS011;20865;43.312;27.152;2022-12-29T04:31:27;13.00;;;4.58;;
34657;SDS011;20865;43.312;27.152;2022-12-29T04:33:55;8.53;;;3.33;;
34657;SDS011;20865;43.312;27.152;2022-12-29T04:36:23;10.03;;;4.40;;
34657;SDS011;20865;43.312;27.152;2022-12-29T04:38:50;11.80;;;3.75;;
34657;SDS011;20865;43.312;27.152;2022-12-29T04:41:18;12.33;;;3.45;;
34657;SDS011;20865;43.312;27.152;2022-12-29T04:43:45;8.73;;;4.00;;
34657;SDS011;20865;43.312;27.152;2022-12-29T04:46:13;10.20;;;3.72;;
34657;SDS011;20865;43.312;27.152;2022-12-29T04:48:40;11.20;;;3.77;;
34657;SDS011;20865;43.312;27.152;2022-12-29T04:51:08;14.47;;;5.00;;
34657;SDS011;20865;43.312;27.152;2022-12-29T04:53:35;10.90;;;4.47;;
34657;SDS011;20865;43.312;27.152;2022-12-29T04:56:03;9.73;;;3.47;;
34657;SDS011;20865;43.312;27.152;2022-12-29T04:58:31;12.13;;;3.50;;
34657;SDS011;20865;43.312;27.152;2022-12-29T05:00:59;12.35;;;3.60;;
34657;SDS011;20865;43.312;27.152;2022-12-29T05:03:26;20.25;;;4.80;;
34657;SDS011;20865;43.312;27.152;2022-12-29T05:05:54;9.98;;;3.55;;
34657;SDS011;20865;43.312;27.152;2022-12-29T05:08:23;18.17;;;4.83;;
34657;SDS011;20865;43.312;27.152;2022-12-29T05:10:51;9.58;;;3.62;;
34657;SDS011;20865;43.312;27.152;2022-12-29T05:13:18;8.70;;;3.90;;
34657;SDS011;20865;43.312;27.152;2022-12-29T05:15:50;11.85;;;4.53;;
34657;SDS011;20865;43.312;27.152;2022-12-29T05:18:18;12.43;;;4.92;;
34657;SDS011;20865;43.312;27.152;2022-12-29T05:20:46;13.25;;;4.62;;
34657;SDS011;20865;43.312;27.152;2022-12-29T05:23:15;12.03;;;4.22;;
34657;SDS011;20865;43.312;27.152;2022-12-29T05:25:43;10.10;;;5.05;;
34657;SDS011;20865;43.312;27.152;2022-12-29T05:28:11;9.03;;;3.77;;
34657;SDS011;20865;43.312;27.152;2022-12-29T05:30:39;13.62;;;4.80;;
34657;SDS011;20865;43.312;27.152;2022-12-29T05:33:07;20.08;;;4.35;;
34657;SDS011;20865;43.312;27.152;2022-12-29T05:35:36;13.50;;;4.70;;
34657;SDS011;20865;43.312;27.152;2022-12-29T05:38:04;12.07;;;4.55;;
34657;SDS011;20865;43.312;27.152;2022-12-29T05:40:32;12.03;;;5.50;;
34657;SDS011;20865;43.312;27.152;2022-12-29T05:42:59;9.48;;;3.83;;
34657;SDS011;20865;43.312;27.152;2022-12-29T05:45:27;11.70;;;4.25;;
34657;SDS011;20865;43.312;27.152;2022-12-29T05:47:54;16.07;;;4.33;;
34657;SDS011;20865;43.312;27.152;2022-12-29T05:50:22;12.90;;;4.67;;
34657;SDS011;20865;43.312;27.152;2022-12-29T05:52:49;8.90;;;3.95;;
34657;SDS011;20865;43.312;27.152;2022-12-29T05:55:17;9.90;;;4.75;;
34657;SDS011;20865;43.312;27.152;2022-12-29T05:57:44;12.82;;;5.42;;
34657;SDS011;20865;43.312;27.152;2022-12-29T06:00:12;9.73;;;3.70;;
34657;SDS011;20865;43.312;27.152;2022-12-29T06:02:40;12.53;;;4.80;;
34657;SDS011;20865;43.312;27.152;2022-12-29T06:05:10;11.15;;;4.22;;
34657;SDS011;20865;43.312;27.152;2022-12-29T06:07:37;14.65;;;4.50;;
34657;SDS011;20865;43.312;27.152;2022-12-29T06:10:05;13.58;;;3.98;;
34657;SDS011;20865;43.312;27.152;2022-12-29T06:12:33;10.43;;;4.33;;
34657;SDS011;20865;43.312;27.152;2022-12-29T06:15:01;11.45;;;4.53;;
34657;SDS011;20865;43.312;27.152;2022-12-29T06:17:29;10.58;;;4.00;;
34657;SDS011;20865;43.312;27.152;2022-12-29T06:19:56;9.38;;;3.25;;
34657;SDS011;20865;43.312;27.152;2022-12-29T06:22:24;11.65;;;4.12;;
34657;SDS011;20865;43.312;27.152;2022-12-29T06:24:51;9.58;;;3.92;;
34657;SDS011;20865;43.312;27.152;2022-12-29T06:27:19;13.22;;;3.52;;
34657;SDS011;20865;43.312;27.152;2022-12-29T06:29:47;10.25;;;3.65;;
34657;SDS011;20865;43.312;27.152;2022-12-29T06:32:15;8.15;;;3.70;;
34657;SDS011;20865;43.312;27.152;2022-12-29T06:34:43;9.60;;;4.47;;
34657;SDS011;20865;43.312;27.152;2022-12-29T06:37:11;8.40;;;3.80;;
34657;SDS011;20865;43.312;27.152;2022-12-29T06:39:40;6.92;;;3.45;;
34657;SDS011;20865;43.312;27.152;2022-12-29T06:42:09;5.03;;;3.20;;
34657;SDS011;20865;43.312;27.152;2022-12-29T06:44:36;8.75;;;3.75;;
34657;SDS011;20865;43.312;27.152;2022-12-29T06:47:04;11.88;;;4.17;;
34657;SDS011;20865;43.312;27.152;2022-12-29T06:49:31;8.25;;;4.33;;
34657;SDS011;20865;43.312;27.152;2022-12-29T06:51:59;9.00;;;3.83;;
34657;SDS011;20865;43.312;27.152;2022-12-29T06:54:28;11.15;;;4.47;;
34657;SDS011;20865;43.312;27.152;2022-12-29T06:56:56;14.73;;;5.28;;
34657;SDS011;20865;43.312;27.152;2022-12-29T06:59:24;11.68;;;5.03;;
34657;SDS011;20865;43.312;27.152;2022-12-29T07:01:52;13.20;;;4.85;;
34657;SDS011;20865;43.312;27.152;2022-12-29T07:04:20;16.50;;;5.87;;
34657;SDS011;20865;43.312;27.152;2022-12-29T07:06:47;16.32;;;6.85;;
34657;SDS011;20865;43.312;27.152;2022-12-29T07:09:15;13.68;;;5.83;;
34657;SDS011;20865;43.312;27.152;2022-12-29T07:11:43;19.77;;;7.00;;
34657;SDS011;20865;43.312;27.152;2022-12-29T07:14:10;19.32;;;7.53;;
34657;SDS011;20865;43.312;27.152;2022-12-29T07:16:38;18.50;;;7.83;;
34657;SDS011;20865;43.312;27.152;2022-12-29T07:19:06;12.60;;;5.10;;
34657;SDS011;20865;43.312;27.152;2022-12-29T07:21:34;10.98;;;3.92;;
34657;SDS011;20865;43.312;27.152;2022-12-29T07:24:01;5.95;;;3.47;;
34657;SDS011;20865;43.312;27.152;2022-12-29T07:26:32;9.58;;;4.47;;
34657;SDS011;20865;43.312;27.152;2022-12-29T07:29:00;10.63;;;3.90;;
34657;SDS011;20865;43.312;27.152;2022-12-29T07:31:28;7.85;;;3.62;;
34657;SDS011;20865;43.312;27.152;2022-12-29T07:33:55;15.72;;;4.37;;
34657;SDS011;20865;43.312;27.152;2022-12-29T07:36:23;16.35;;;4.53;;
34657;SDS011;20865;43.312;27.152;2022-12-29T07:38:50;13.38;;;4.17;;
34657;SDS011;20865;43.312;27.152;2022-12-29T07:41:18;8.18;;;4.33;;
34657;SDS011;20865;43.312;27.152;2022-12-29T07:43:49;12.03;;;5.10;;
34657;SDS011;20865;43.312;27.152;2022-12-29T07:46:16;13.78;;;5.10;;
34657;SDS011;20865;43.312;27.152;2022-12-29T07:48:44;18.27;;;5.28;;
34657;SDS011;20865;43.312;27.152;2022-12-29T07:51:11;8.18;;;4.22;;
34657;SDS011;20865;43.312;27.152;2022-12-29T07:53:39;14.20;;;5.25;;
34657;SDS011;20865;43.312;27.152;2022-12-29T07:56:06;19.98;;;5.17;;
34657;SDS011;20865;43.312;27.152;2022-12-29T07:58:34;14.28;;;5.03;;
34657;SDS011;20865;43.312;27.152;2022-12-29T08:01:01;16.05;;;4.97;;
34657;SDS011;20865;43.312;27.152;2022-12-29T08:03:30;13.90;;;4.87;;
34657;SDS011;20865;43.312;27.152;2022-12-29T08:05:58;10.75;;;4.80;;
34657;SDS011;20865;43.312;27.152;2022-12-29T08:08:26;11.90;;;4.97;;
34657;SDS011;20865;43.312;27.152;2022-12-29T08:10:54;18.25;;;6.58;;
34657;SDS011;20865;43.312;27.152;2022-12-29T08:13:21;16.57;;;7.20;;
34657;SDS011;20865;43.312;27.152;2022-12-29T08:15:49;14.98;;;6.90;;
34657;SDS011;20865;43.312;27.152;2022-12-29T08:18:17;11.50;;;5.37;;
34657;SDS011;20865;43.312;27.152;2022-12-29T08:20:44;14.07;;;5.70;;
34657;SDS011;20865;43.312;27.152;2022-12-29T08:23:12;12.73;;;5.45;;
34657;SDS011;20865;43.312;27.152;2022-12-29T08:25:39;12.18;;;5.90;;
34657;SDS011;20865;43.312;27.152;2022-12-29T08:28:07;11.25;;;4.20;;
34657;SDS011;20865;43.312;27.152;2022-12-29T08:30:35;12.60;;;5.15;;
34657;SDS011;20865;43.312;27.152;2022-12-29T08:33:03;13.20;;;5.85;;
34657;SDS011;20865;43.312;27.152;2022-12-29T08:35:31;13.65;;;6.15;;
34657;SDS011;20865;43.312;27.152;2022-12-29T08:37:58;15.78;;;5.67;;
34657;SDS011;20865;43.312;27.152;2022-12-29T08:40:26;17.70;;;6.72;;
34657;SDS011;20865;43.312;27.152;2022-12-29T08:42:53;15.10;;;6.08;;
34657;SDS011;20865;43.312;27.152;2022-12-29T08:45:21;12.15;;;4.87;;
34657;SDS011;20865;43.312;27.152;2022-12-29T08:47:48;9.90;;;4.33;;
34657;SDS011;20865;43.312;27.152;2022-12-29T08:50:16;13.20;;;4.97;;
34657;SDS011;20865;43.312;27.152;2022-12-29T08:52:44;9.65;;;4.50;;
34657;SDS011;20865;43.312;27.152;2022-12-29T08:55:11;10.95;;;4.92;;
34657;SDS011;20865;43.312;27.152;2022-12-29T08:57:39;8.23;;;3.58;;
34657;SDS011;20865;43.312;27.152;2022-12-29T09:00:07;12.90;;;4.42;;
34657;SDS011;20865;43.312;27.152;2022-12-29T09:02:35;11.50;;;4.33;;
34657;SDS011;20865;43.312;27.152;2022-12-29T09:05:03;10.82;;;4.40;;
34657;SDS011;20865;43.312;27.152;2022-12-29T09:07:33;52.58;;;17.42;;
34657;SDS011;20865;43.312;27.152;2022-12-29T09:10:00;25.95;;;9.85;;
34657;SDS011;20865;43.312;27.152;2022-12-29T09:12:29;9.08;;;3.87;;
34657;SDS011;20865;43.312;27.152;2022-12-29T09:14:57;7.80;;;3.83;;
34657;SDS011;20865;43.312;27.152;2022-12-29T09:17:25;8.78;;;4.33;;
34657;SDS011;20865;43.312;27.152;2022-12-29T09:20:16;11.80;;;4.97;;
34657;SDS011;20865;43.312;27.152;2022-12-29T09:22:46;11.95;;;6.40;;
34657;SDS011;20865;43.312;27.152;2022-12-29T09:25:14;15.53;;;6.30;;
34657;SDS011;20865;43.312;27.152;2022-12-29T09:27:41;13.50;;;5.20;;
34657;SDS011;20865;43.312;27.152;2022-12-29T09:30:10;11.63;;;6.05;;
34657;SDS011;20865;43.312;27.152;2022-12-29T09:32:40;15.60;;;6.35;;
34657;SDS011;20865;43.312;27.152;2022-12-29T09:35:07;15.83;;;6.95;;
34657;SDS011;20865;43.312;27.152;2022-12-29T09:37:35;16.73;;;6.37;;
34657;SDS011;20865;43.312;27.152;2022-12-29T09:40:05;21.90;;;10.00;;
34657;SDS011;20865;43.312;27.152;2022-12-29T09:42:38;10.98;;;5.55;;
34657;SDS011;20865;43.312;27.152;2022-12-29T09:47:43;16.65;;;7.05;;
34657;SDS011;20865;43.312;27.152;2022-12-29T09:50:22;15.53;;;6.12;;
34657;SDS011;20865;43.312;27.152;2022-12-29T09:52:54;15.08;;;5.97;;
34657;SDS011;20865;43.312;27.152;2022-12-29T09:55:23;23.90;;;11.48;;
34657;SDS011;20865;43.312;27.152;2022-12-29T09:57:57;19.67;;;7.42;;
34657;SDS011;20865;43.312;27.152;2022-12-29T10:01:21;44.80;;;22.52;;
34657;SDS011;20865;43.312;27.152;2022-12-29T10:03:09;16.37;;;7.28;;
34657;SDS011;20865;43.312;27.152;2022-12-29T10:05:40;16.85;;;6.80;;
34657;SDS011;20865;43.312;27.152;2022-12-29T10:11:07;10.75;;;4.95;;
34657;SDS011;20865;43.312;27.152;2022-12-29T10:16:20;12.10;;;4.63;;
34657;SDS011;20865;43.312;27.152;2022-12-29T10:24:17;11.30;;;4.45;;
34657;SDS011;20865;43.312;27.152;2022-12-29T10:26:48;13.48;;;4.47;;
34657;SDS011;20865;43.312;27.152;2022-12-29T10:29:32;9.35;;;3.72;;
34657;SDS011;20865;43.312;27.152;2022-12-29T10:32:03;10.78;;;3.87;;
34657;SDS011;20865;43.312;27.152;2022-12-29T10:34:37;11.97;;;4.25;;
34657;SDS011;20865;43.312;27.152;2022-12-29T10:37:14;9.15;;;3.90;;
34657;SDS011;20865;43.312;27.152;2022-12-29T10:39:50;10.70;;;3.50;;
34657;SDS011;20865;43.312;27.152;2022-12-29T10:42:27;10.43;;;3.72;;
34657;SDS011;20865;43.312;27.152;2022-12-29T10:45:03;10.88;;;3.45;;
34657;SDS011;20865;43.312;27.152;2022-12-29T10:47:37;14.87;;;4.15;;
34657;SDS011;20865;43.312;27.152;2022-12-29T10:50:06;14.10;;;5.70;;
34657;SDS011;20865;43.312;27.152;2022-12-29T10:52:33;12.18;;;5.15;;
34657;SDS011;20865;43.312;27.152;2022-12-29T10:55:04;12.80;;;5.45;;
34657;SDS011;20865;43.312;27.152;2022-12-29T10:57:41;9.43;;;4.83;;
34657;SDS011;20865;43.312;27.152;2022-12-29T11:00:11;18.00;;;8.38;;
34657;SDS011;20865;43.312;27.152;2022-12-29T11:07:56;33.58;;;13.58;;
34657;SDS011;20865;43.312;27.152;2022-12-29T11:13:15;32.75;;;11.85;;
34657;SDS011;20865;43.312;27.152;2022-12-29T11:15:47;15.40;;;7.08;;
34657;SDS011;20865;43.312;27.152;2022-12-29T11:18:32;25.43;;;9.90;;
34657;SDS011;20865;43.312;27.152;2022-12-29T11:21:03;18.73;;;7.85;;
34657;SDS011;20865;43.312;27.152;2022-12-29T11:23:39;13.00;;;5.45;;
34657;SDS011;20865;43.312;27.152;2022-12-29T11:26:16;13.62;;;5.80;;
34657;SDS011;20865;43.312;27.152;2022-12-29T11:28:46;27.32;;;15.95;;
34657;SDS011;20865;43.312;27.152;2022-12-29T11:31:16;20.68;;;7.30;;
34657;SDS011;20865;43.312;27.152;2022-12-29T11:33:44;13.25;;;4.70;;
34657;SDS011;20865;43.312;27.152;2022-12-29T11:36:16;18.17;;;5.33;;
34657;SDS011;20865;43.312;27.152;2022-12-29T11:38:46;11.90;;;4.87;;
34657;SDS011;20865;43.312;27.152;2022-12-29T11:41:19;14.65;;;5.92;;
34657;SDS011;20865;43.312;27.152;2022-12-29T11:43:58;11.20;;;5.23;;
34657;SDS011;20865;43.312;27.152;2022-12-29T11:46:24;10.25;;;4.20;;
34657;SDS011;20865;43.312;27.152;2022-12-29T11:48:55;11.57;;;4.53;;
34657;SDS011;20865;43.312;27.152;2022-12-29T11:54:13;12.60;;;5.00;;
34657;SDS011;20865;43.312;27.152;2022-12-29T11:56:42;11.48;;;4.40;;
34657;SDS011;20865;43.312;27.152;2022-12-29T12:02:26;8.70;;;3.95;;
34657;SDS011;20865;43.312;27.152;2022-12-29T12:04:49;8.03;;;3.55;;
34657;SDS011;20865;43.312;27.152;2022-12-29T12:07:24;12.85;;;4.15;;
34657;SDS011;20865;43.312;27.152;2022-12-29T12:09:57;10.88;;;4.28;;
34657;SDS011;20865;43.312;27.152;2022-12-29T12:13:29;9.78;;;3.50;;
34657;SDS011;20865;43.312;27.152;2022-12-29T12:15:22;15.18;;;4.53;;
34657;SDS011;20865;43.312;27.152;2022-12-29T12:28:45;12.82;;;5.17;;
34657;SDS011;20865;43.312;27.152;2022-12-29T12:31:25;10.72;;;4.42;;
34657;SDS011;20865;43.312;27.152;2022-12-29T12:33:57;18.30;;;6.87;;
34657;SDS011;20865;43.312;27.152;2022-12-29T12:36:28;15.05;;;5.42;;
34657;SDS011;20865;43.312;27.152;2022-12-29T12:39:18;13.55;;;5.40;;
34657;SDS011;20865;43.312;27.152;2022-12-29T12:41:52;14.58;;;5.62;;
34657;SDS011;20865;43.312;27.152;2022-12-29T12:44:28;19.27;;;5.92;;
34657;SDS011;20865;43.312;27.152;2022-12-29T12:47:13;18.57;;;5.62;;
34657;SDS011;20865;43.312;27.152;2022-12-29T12:50:01;13.78;;;6.60;;
34657;SDS011;20865;43.312;27.152;2022-12-29T12:58:15;23.30;;;8.13;;
34657;SDS011;20865;43.312;27.152;2022-12-29T13:00:55;17.60;;;6.15;;
34657;SDS011;20865;43.312;27.152;2022-12-29T13:09:22;16.97;;;7.45;;
34657;SDS011;20865;43.312;27.152;2022-12-29T13:11:52;17.27;;;7.05;;
34657;SDS011;20865;43.312;27.152;2022-12-29T13:14:39;24.37;;;9.35;;
34657;SDS011;20865;43.312;27.152;2022-12-29T13:20:20;17.10;;;6.17;;
34657;SDS011;20865;43.312;27.152;2022-12-29T13:22:56;13.95;;;5.08;;
34657;SDS011;20865;43.312;27.152;2022-12-29T13:25:33;13.45;;;5.75;;
34657;SDS011;20865;43.312;27.152;2022-12-29T13:28:38;13.77;;;5.67;;
34657;SDS011;20865;43.312;27.152;2022-12-29T13:31:22;10.98;;;5.37;;
34657;SDS011;20865;43.312;27.152;2022-12-29T13:34:10;11.18;;;5.37;;
34657;SDS011;20865;43.312;27.152;2022-12-29T13:36:56;16.12;;;7.67;;
34657;SDS011;20865;43.312;27.152;2022-12-29T13:39:27;15.98;;;7.10;;
34657;SDS011;20865;43.312;27.152;2022-12-29T13:42:11;12.70;;;5.75;;
34657;SDS011;20865;43.312;27.152;2022-12-29T13:44:57;16.55;;;6.70;;
34657;SDS011;20865;43.312;27.152;2022-12-29T13:47:35;11.40;;;4.92;;
34657;SDS011;20865;43.312;27.152;2022-12-29T13:50:05;9.65;;;4.33;;
34657;SDS011;20865;43.312;27.152;2022-12-29T13:52:39;6.25;;;3.42;;
34657;SDS011;20865;43.312;27.152;2022-12-29T14:00:22;6.97;;;3.58;;
34657;SDS011;20865;43.312;27.152;2022-12-29T14:05:31;53.87;;;4.45;;
34657;SDS011;20865;43.312;27.152;2022-12-29T14:08:00;37.80;;;3.92;;
34657;SDS011;20865;43.312;27.152;2022-12-29T14:10:35;24.05;;;3.42;;
34657;SDS011;20865;43.312;27.152;2022-12-29T14:13:03;87.20;;;4.95;;
34657;SDS011;20865;43.312;27.152;2022-12-29T14:15:42;114.95;;;5.25;;
34657;SDS011;20865;43.312;27.152;2022-12-29T14:18:16;130.43;;;6.28;;
34657;SDS011;20865;43.312;27.152;2022-12-29T14:23:35;15.35;;;3.40;;
34657;SDS011;20865;43.312;27.152;2022-12-29T14:26:00;17.98;;;4.67;;
34657;SDS011;20865;43.312;27.152;2022-12-29T14:28:37;12.33;;;3.37;;
34657;SDS011;20865;43.312;27.152;2022-12-29T14:39:34;11.08;;;4.25;;
34657;SDS011;20865;43.312;27.152;2022-12-29T14:44:46;4.37;;;2.90;;
34657;SDS011;20865;43.312;27.152;2022-12-29T14:47:18;17.82;;;3.15;;
34657;SDS011;20865;43.312;27.152;2022-12-29T14:50:12;7.72;;;3.10;;
34657;SDS011;20865;43.312;27.152;2022-12-29T14:52:46;11.30;;;3.45;;
34657;SDS011;20865;43.312;27.152;2022-12-29T14:57:49;10.80;;;3.80;;
34657;SDS011;20865;43.312;27.152;2022-12-29T15:00:21;12.00;;;3.52;;
34657;SDS011;20865;43.312;27.152;2022-12-29T15:03:05;7.97;;;3.25;;
34657;SDS011;20865;43.312;27.152;2022-12-29T15:08:04;6.65;;;3.20;;
34657;SDS011;20865;43.312;27.152;2022-12-29T15:10:36;9.65;;;3.15;;
34657;SDS011;20865;43.312;27.152;2022-12-29T15:13:05;8.40;;;3.67;;
34657;SDS011;20865;43.312;27.152;2022-12-29T15:15:38;8.63;;;3.58;;
34657;SDS011;20865;43.312;27.152;2022-12-29T15:18:15;7.17;;;3.67;;
34657;SDS011;20865;43.312;27.152;2022-12-29T15:20:50;15.53;;;5.60;;
34657;SDS011;20865;43.312;27.152;2022-12-29T15:23:19;13.28;;;5.75;;
34657;SDS011;20865;43.312;27.152;2022-12-29T15:25:49;12.03;;;4.78;;
34657;SDS011;20865;43.312;27.152;2022-12-29T15:28:17;8.45;;;4.25;;
34657;SDS011;20865;43.312;27.152;2022-12-29T15:30:56;10.78;;;4.45;;
34657;SDS011;20865;43.312;27.152;2022-12-29T15:33:22;10.13;;;4.35;;
34657;SDS011;20865;43.312;27.152;2022-12-29T15:35:52;8.83;;;4.92;;
34657;SDS011;20865;43.312;27.152;2022-12-29T15:38:25;14.75;;;4.97;;
34657;SDS011;20865;43.312;27.152;2022-12-29T15:41:02;12.18;;;4.70;;
34657;SDS011;20865;43.312;27.152;2022-12-29T15:43:34;11.73;;;4.37;;
34657;SDS011;20865;43.312;27.152;2022-12-29T15:46:10;11.65;;;5.67;;
34657;SDS011;20865;43.312;27.152;2022-12-29T15:48:38;16.65;;;5.55;;
34657;SDS011;20865;43.312;27.152;2022-12-29T15:53:54;17.62;;;6.47;;
34657;SDS011;20865;43.312;27.152;2022-12-29T15:56:22;13.48;;;6.15;;
34657;SDS011;20865;43.312;27.152;2022-12-29T15:58:51;19.48;;;6.37;;
34657;SDS011;20865;43.312;27.152;2022-12-29T16:01:30;21.87;;;7.12;;
34657;SDS011;20865;43.312;27.152;2022-12-29T16:03:52;15.53;;;6.42;;
34657;SDS011;20865;43.312;27.152;2022-12-29T16:09:03;17.42;;;6.22;;
34657;SDS011;20865;43.312;27.152;2022-12-29T16:11:38;26.93;;;6.75;;
34657;SDS011;20865;43.312;27.152;2022-12-29T16:14:13;16.10;;;6.12;;
34657;SDS011;20865;43.312;27.152;2022-12-29T16:16:38;22.55;;;8.48;;
34657;SDS011;20865;43.312;27.152;2022-12-29T16:19:14;17.40;;;6.28;;
34657;SDS011;20865;43.312;27.152;2022-12-29T16:21:44;13.47;;;6.10;;
34657;SDS011;20865;43.312;27.152;2022-12-29T16:24:18;17.48;;;5.95;;
34657;SDS011;20865;43.312;27.152;2022-12-29T16:26:56;14.25;;;5.35;;
34657;SDS011;20865;43.312;27.152;2022-12-29T16:29:23;22.27;;;7.50;;
34657;SDS011;20865;43.312;27.152;2022-12-29T16:31:52;16.60;;;6.67;;
34657;SDS011;20865;43.312;27.152;2022-12-29T16:34:24;18.17;;;6.37;;
34657;SDS011;20865;43.312;27.152;2022-12-29T16:36:57;18.17;;;7.65;;
34657;SDS011;20865;43.312;27.152;2022-12-29T16:50:35;14.87;;;5.70;;
34657;SDS011;20865;43.312;27.152;2022-12-29T16:53:06;17.50;;;6.45;;
34657;SDS011;20865;43.312;27.152;2022-12-29T16:55:46;15.45;;;6.28;;